sensor_id;sensor_type;location;lat;lon;timestamp;P1;durP1;ratioP1;P2;durP2;ratioP2
3953;SDS011;1991;48.682;9.030;2022-07-24T00:02:21;13.02;;;10.70;;
3953;SDS011;1991;48.682;9.030;2022-07-24T00:04:47;12.05;;;10.93;;
3953;SDS011;1991;48.682;9.030;2022-07-24T00:07:13;12.27;;;11.07;;
3953;SDS011;1991;48.682;9.030;2022-07-24T00:09:38;13.02;;;10.35;;
3953;SDS011;1991;48.682;9.030;2022-07-24T00:12:04;14.13;;;10.50;;
3953;SDS011;1991;48.682;9.030;2022-07-24T00:14:30;12.85;;;11.60;;
3953;SDS011;1991;48.682;9.030;2022-07-24T00:16:56;12.45;;;11.23;;
3953;SDS011;1991;48.682;9.030;2022-07-24T00:19:21;12.18;;;11.07;;
3953;SDS011;1991;48.682;9.030;2022-07-24T00:21:47;12.00;;;10.80;;
3953;SDS011;1991;48.682;9.030;2022-07-24T00:24:13;11.85;;;10.30;;
3953;SDS011;1991;48.682;9.030;2022-07-24T00:26:38;12.75;;;11.35;;
3953;SDS011;1991;48.682;9.030;2022-07-24T00:29:04;12.25;;;10.95;;
3953;SDS011;1991;48.682;9.030;2022-07-24T00:31:29;13.02;;;11.40;;
3953;SDS011;1991;48.682;9.030;2022-07-24T00:33:55;11.73;;;10.45;;
3953;SDS011;1991;48.682;9.030;2022-07-24T00:36:21;12.48;;;11.25;;
3953;SDS011;1991;48.682;9.030;2022-07-24T00:38:47;11.68;;;10.68;;
3953;SDS011;1991;48.682;9.030;2022-07-24T00:41:12;11.57;;;10.50;;
3953;SDS011;1991;48.682;9.030;2022-07-24T00:46:23;10.75;;;9.82;;
3953;SDS011;1991;48.682;9.030;2022-07-24T00:48:48;11.02;;;10.02;;
3953;SDS011;1991;48.682;9.030;2022-07-24T00:51:14;11.60;;;10.40;;
3953;SDS011;1991;48.682;9.030;2022-07-24T00:53:40;13.35;;;10.55;;
3953;SDS011;1991;48.682;9.030;2022-07-24T00:56:05;12.57;;;10.60;;
3953;SDS011;1991;48.682;9.030;2022-07-24T00:58:31;11.23;;;10.07;;
3953;SDS011;1991;48.682;9.030;2022-07-24T01:00:57;10.00;;;9.13;;
3953;SDS011;1991;48.682;9.030;2022-07-24T01:03:22;12.85;;;10.13;;
3953;SDS011;1991;48.682;9.030;2022-07-24T01:05:48;10.93;;;9.80;;
3953;SDS011;1991;48.682;9.030;2022-07-24T01:08:13;10.05;;;9.07;;
3953;SDS011;1991;48.682;9.030;2022-07-24T01:10:40;10.60;;;9.43;;
3953;SDS011;1991;48.682;9.030;2022-07-24T01:13:06;9.93;;;8.98;;
3953;SDS011;1991;48.682;9.030;2022-07-24T01:15:32;10.80;;;8.98;;
3953;SDS011;1991;48.682;9.030;2022-07-24T01:17:58;11.13;;;9.05;;
3953;SDS011;1991;48.682;9.030;2022-07-24T01:20:23;10.60;;;9.50;;
3953;SDS011;1991;48.682;9.030;2022-07-24T01:22:49;10.93;;;9.82;;
3953;SDS011;1991;48.682;9.030;2022-07-24T01:25:15;10.00;;;9.05;;
3953;SDS011;1991;48.682;9.030;2022-07-24T01:27:40;10.27;;;9.25;;
3953;SDS011;1991;48.682;9.030;2022-07-24T01:30:06;10.68;;;9.63;;
3953;SDS011;1991;48.682;9.030;2022-07-24T01:32:32;11.38;;;9.45;;
3953;SDS011;1991;48.682;9.030;2022-07-24T01:34:58;10.73;;;9.68;;
3953;SDS011;1991;48.682;9.030;2022-07-24T01:37:24;10.30;;;9.02;;
3953;SDS011;1991;48.682;9.030;2022-07-24T01:39:49;11.82;;;9.32;;
3953;SDS011;1991;48.682;9.030;2022-07-24T01:42:15;11.65;;;9.35;;
3953;SDS011;1991;48.682;9.030;2022-07-24T01:44:40;11.02;;;9.93;;
3953;SDS011;1991;48.682;9.030;2022-07-24T01:47:06;10.50;;;9.50;;
3953;SDS011;1991;48.682;9.030;2022-07-24T01:49:31;10.73;;;9.70;;
3953;SDS011;1991;48.682;9.030;2022-07-24T01:51:57;11.05;;;9.73;;
3953;SDS011;1991;48.682;9.030;2022-07-24T01:54:23;11.13;;;9.90;;
3953;SDS011;1991;48.682;9.030;2022-07-24T01:56:48;10.93;;;9.90;;
3953;SDS011;1991;48.682;9.030;2022-07-24T01:59:14;12.35;;;10.40;;
3953;SDS011;1991;48.682;9.030;2022-07-24T02:01:39;11.10;;;10.00;;
3953;SDS011;1991;48.682;9.030;2022-07-24T02:04:05;10.43;;;9.40;;
3953;SDS011;1991;48.682;9.030;2022-07-24T02:06:31;11.15;;;9.93;;
3953;SDS011;1991;48.682;9.030;2022-07-24T02:08:57;12.35;;;9.95;;
3953;SDS011;1991;48.682;9.030;2022-07-24T02:11:22;10.27;;;9.38;;
3953;SDS011;1991;48.682;9.030;2022-07-24T02:13:48;12.90;;;9.50;;
3953;SDS011;1991;48.682;9.030;2022-07-24T02:16:13;11.77;;;10.60;;
3953;SDS011;1991;48.682;9.030;2022-07-24T02:18:39;10.27;;;9.35;;
3953;SDS011;1991;48.682;9.030;2022-07-24T02:21:05;9.57;;;8.57;;
3953;SDS011;1991;48.682;9.030;2022-07-24T02:23:30;10.30;;;8.07;;
3953;SDS011;1991;48.682;9.030;2022-07-24T02:25:56;11.52;;;9.32;;
3953;SDS011;1991;48.682;9.030;2022-07-24T02:28:22;12.90;;;9.38;;
3953;SDS011;1991;48.682;9.030;2022-07-24T02:30:47;10.40;;;9.25;;
3953;SDS011;1991;48.682;9.030;2022-07-24T02:33:13;10.18;;;8.82;;
3953;SDS011;1991;48.682;9.030;2022-07-24T02:35:38;10.90;;;9.85;;
3953;SDS011;1991;48.682;9.030;2022-07-24T02:38:04;10.27;;;9.27;;
3953;SDS011;1991;48.682;9.030;2022-07-24T02:40:30;10.63;;;9.40;;
3953;SDS011;1991;48.682;9.030;2022-07-24T02:42:56;10.05;;;8.77;;
3953;SDS011;1991;48.682;9.030;2022-07-24T02:45:22;13.60;;;8.63;;
3953;SDS011;1991;48.682;9.030;2022-07-24T02:47:49;10.65;;;9.55;;
3953;SDS011;1991;48.682;9.030;2022-07-24T02:50:19;10.88;;;9.40;;
3953;SDS011;1991;48.682;9.030;2022-07-24T02:52:46;10.30;;;9.25;;
3953;SDS011;1991;48.682;9.030;2022-07-24T02:55:12;9.75;;;8.85;;
3953;SDS011;1991;48.682;9.030;2022-07-24T02:57:38;10.15;;;9.07;;
3953;SDS011;1991;48.682;9.030;2022-07-24T03:00:04;10.40;;;9.40;;
3953;SDS011;1991;48.682;9.030;2022-07-24T03:02:32;10.23;;;9.20;;
3953;SDS011;1991;48.682;9.030;2022-07-24T03:04:58;9.90;;;8.90;;
3953;SDS011;1991;48.682;9.030;2022-07-24T03:07:24;9.02;;;8.13;;
3953;SDS011;1991;48.682;9.030;2022-07-24T03:09:50;10.27;;;9.20;;
3953;SDS011;1991;48.682;9.030;2022-07-24T03:12:15;9.35;;;8.45;;
3953;SDS011;1991;48.682;9.030;2022-07-24T03:14:41;9.48;;;8.57;;
3953;SDS011;1991;48.682;9.030;2022-07-24T03:17:06;9.82;;;8.93;;
3953;SDS011;1991;48.682;9.030;2022-07-24T03:19:32;10.70;;;8.98;;
3953;SDS011;1991;48.682;9.030;2022-07-24T03:21:58;10.63;;;8.20;;
3953;SDS011;1991;48.682;9.030;2022-07-24T03:24:23;9.77;;;8.65;;
3953;SDS011;1991;48.682;9.030;2022-07-24T03:26:49;8.75;;;8.00;;
3953;SDS011;1991;48.682;9.030;2022-07-24T03:29:14;9.38;;;8.30;;
3953;SDS011;1991;48.682;9.030;2022-07-24T03:31:40;9.07;;;8.25;;
3953;SDS011;1991;48.682;9.030;2022-07-24T03:34:06;10.60;;;7.95;;
3953;SDS011;1991;48.682;9.030;2022-07-24T03:36:31;9.38;;;8.52;;
3953;SDS011;1991;48.682;9.030;2022-07-24T03:38:57;9.75;;;8.68;;
3953;SDS011;1991;48.682;9.030;2022-07-24T03:41:23;9.50;;;8.48;;
3953;SDS011;1991;48.682;9.030;2022-07-24T03:43:48;9.50;;;8.60;;
3953;SDS011;1991;48.682;9.030;2022-07-24T03:46:14;9.60;;;8.70;;
3953;SDS011;1991;48.682;9.030;2022-07-24T03:48:40;9.43;;;8.55;;
3953;SDS011;1991;48.682;9.030;2022-07-24T03:51:05;9.10;;;8.18;;
3953;SDS011;1991;48.682;9.030;2022-07-24T03:53:31;9.13;;;8.23;;
3953;SDS011;1991;48.682;9.030;2022-07-24T03:55:57;10.90;;;8.75;;
3953;SDS011;1991;48.682;9.030;2022-07-24T03:58:22;10.40;;;9.40;;
3953;SDS011;1991;48.682;9.030;2022-07-24T04:00:48;9.98;;;9.05;;
3953;SDS011;1991;48.682;9.030;2022-07-24T04:03:13;9.52;;;8.55;;
3953;SDS011;1991;48.682;9.030;2022-07-24T04:05:39;9.77;;;8.77;;
3953;SDS011;1991;48.682;9.030;2022-07-24T04:08:04;9.23;;;8.32;;
3953;SDS011;1991;48.682;9.030;2022-07-24T04:10:30;10.85;;;9.77;;
3953;SDS011;1991;48.682;9.030;2022-07-24T04:12:55;9.25;;;8.43;;
3953;SDS011;1991;48.682;9.030;2022-07-24T04:15:21;9.20;;;8.40;;
3953;SDS011;1991;48.682;9.030;2022-07-24T04:17:47;9.40;;;8.43;;
3953;SDS011;1991;48.682;9.030;2022-07-24T04:20:13;10.20;;;8.95;;
3953;SDS011;1991;48.682;9.030;2022-07-24T04:22:38;9.52;;;8.70;;
3953;SDS011;1991;48.682;9.030;2022-07-24T04:25:04;9.68;;;8.77;;
3953;SDS011;1991;48.682;9.030;2022-07-24T04:27:31;10.25;;;9.15;;
3953;SDS011;1991;48.682;9.030;2022-07-24T04:29:56;9.77;;;8.82;;
3953;SDS011;1991;48.682;9.030;2022-07-24T04:32:23;9.68;;;8.73;;
3953;SDS011;1991;48.682;9.030;2022-07-24T04:34:49;11.38;;;9.15;;
3953;SDS011;1991;48.682;9.030;2022-07-24T04:37:15;9.43;;;8.52;;
3953;SDS011;1991;48.682;9.030;2022-07-24T04:39:40;10.23;;;9.23;;
3953;SDS011;1991;48.682;9.030;2022-07-24T04:42:06;10.43;;;9.45;;
3953;SDS011;1991;48.682;9.030;2022-07-24T04:44:31;9.80;;;8.90;;
3953;SDS011;1991;48.682;9.030;2022-07-24T04:46:57;11.02;;;9.38;;
3953;SDS011;1991;48.682;9.030;2022-07-24T04:49:23;9.43;;;8.63;;
3953;SDS011;1991;48.682;9.030;2022-07-24T04:51:48;11.32;;;9.20;;
3953;SDS011;1991;48.682;9.030;2022-07-24T04:54:14;11.68;;;9.73;;
3953;SDS011;1991;48.682;9.030;2022-07-24T04:56:39;10.05;;;9.05;;
3953;SDS011;1991;48.682;9.030;2022-07-24T04:59:05;10.70;;;9.70;;
3953;SDS011;1991;48.682;9.030;2022-07-24T05:01:30;9.63;;;8.82;;
3953;SDS011;1991;48.682;9.030;2022-07-24T05:03:56;10.82;;;9.35;;
3953;SDS011;1991;48.682;9.030;2022-07-24T05:06:23;9.95;;;9.05;;
3953;SDS011;1991;48.682;9.030;2022-07-24T05:08:49;10.63;;;9.65;;
3953;SDS011;1991;48.682;9.030;2022-07-24T05:11:15;10.35;;;9.30;;
3953;SDS011;1991;48.682;9.030;2022-07-24T05:13:40;10.82;;;9.77;;
3953;SDS011;1991;48.682;9.030;2022-07-24T05:16:06;10.70;;;9.70;;
3953;SDS011;1991;48.682;9.030;2022-07-24T05:18:31;10.50;;;9.43;;
3953;SDS011;1991;48.682;9.030;2022-07-24T05:20:57;11.65;;;10.20;;
3953;SDS011;1991;48.682;9.030;2022-07-24T05:23:23;11.38;;;9.52;;
3953;SDS011;1991;48.682;9.030;2022-07-24T05:25:48;9.90;;;9.00;;
3953;SDS011;1991;48.682;9.030;2022-07-24T05:28:14;13.13;;;9.30;;
3953;SDS011;1991;48.682;9.030;2022-07-24T05:30:39;10.15;;;8.82;;
3953;SDS011;1991;48.682;9.030;2022-07-24T05:33:05;10.68;;;9.68;;
3953;SDS011;1991;48.682;9.030;2022-07-24T05:35:30;9.63;;;8.48;;
3953;SDS011;1991;48.682;9.030;2022-07-24T05:37:56;9.52;;;8.60;;
3953;SDS011;1991;48.682;9.030;2022-07-24T05:40:22;12.05;;;9.15;;
3953;SDS011;1991;48.682;9.030;2022-07-24T05:42:47;10.32;;;8.30;;
3953;SDS011;1991;48.682;9.030;2022-07-24T05:45:13;8.70;;;7.97;;
3953;SDS011;1991;48.682;9.030;2022-07-24T05:47:39;9.90;;;8.90;;
3953;SDS011;1991;48.682;9.030;2022-07-24T05:50:06;9.10;;;8.20;;
3953;SDS011;1991;48.682;9.030;2022-07-24T05:52:37;10.05;;;8.60;;
3953;SDS011;1991;48.682;9.030;2022-07-24T05:55:03;9.10;;;8.23;;
3953;SDS011;1991;48.682;9.030;2022-07-24T05:57:29;9.32;;;8.52;;
3953;SDS011;1991;48.682;9.030;2022-07-24T05:59:55;10.13;;;8.18;;
3953;SDS011;1991;48.682;9.030;2022-07-24T06:02:21;8.73;;;7.82;;
3953;SDS011;1991;48.682;9.030;2022-07-24T06:04:46;9.13;;;8.25;;
3953;SDS011;1991;48.682;9.030;2022-07-24T06:07:12;8.70;;;7.72;;
3953;SDS011;1991;48.682;9.030;2022-07-24T06:09:38;9.98;;;8.13;;
3953;SDS011;1991;48.682;9.030;2022-07-24T06:12:04;8.50;;;7.75;;
3953;SDS011;1991;48.682;9.030;2022-07-24T06:14:30;8.45;;;7.55;;
3953;SDS011;1991;48.682;9.030;2022-07-24T06:16:57;10.55;;;7.20;;
3953;SDS011;1991;48.682;9.030;2022-07-24T06:19:23;7.57;;;6.72;;
3953;SDS011;1991;48.682;9.030;2022-07-24T06:21:49;10.13;;;7.20;;
3953;SDS011;1991;48.682;9.030;2022-07-24T06:24:15;7.90;;;7.15;;
3953;SDS011;1991;48.682;9.030;2022-07-24T06:26:41;8.70;;;7.03;;
3953;SDS011;1991;48.682;9.030;2022-07-24T06:29:07;9.25;;;6.82;;
3953;SDS011;1991;48.682;9.030;2022-07-24T06:31:32;8.27;;;7.07;;
3953;SDS011;1991;48.682;9.030;2022-07-24T06:33:58;7.40;;;6.68;;
3953;SDS011;1991;48.682;9.030;2022-07-24T06:36:23;7.20;;;6.53;;
3953;SDS011;1991;48.682;9.030;2022-07-24T06:38:49;8.80;;;6.93;;
3953;SDS011;1991;48.682;9.030;2022-07-24T06:41:15;7.13;;;6.50;;
3953;SDS011;1991;48.682;9.030;2022-07-24T06:43:40;7.68;;;6.97;;
3953;SDS011;1991;48.682;9.030;2022-07-24T06:46:06;7.50;;;6.78;;
3953;SDS011;1991;48.682;9.030;2022-07-24T06:48:32;9.70;;;7.18;;
3953;SDS011;1991;48.682;9.030;2022-07-24T06:50:57;7.93;;;6.95;;
3953;SDS011;1991;48.682;9.030;2022-07-24T06:53:23;11.18;;;6.60;;
3953;SDS011;1991;48.682;9.030;2022-07-24T06:55:49;6.88;;;6.25;;
3953;SDS011;1991;48.682;9.030;2022-07-24T06:58:18;6.57;;;5.97;;
3953;SDS011;1991;48.682;9.030;2022-07-24T07:00:44;7.18;;;6.50;;
3953;SDS011;1991;48.682;9.030;2022-07-24T07:03:10;6.90;;;6.00;;
3953;SDS011;1991;48.682;9.030;2022-07-24T07:05:35;6.72;;;6.10;;
3953;SDS011;1991;48.682;9.030;2022-07-24T07:08:01;7.10;;;6.28;;
3953;SDS011;1991;48.682;9.030;2022-07-24T07:10:27;8.05;;;6.32;;
3953;SDS011;1991;48.682;9.030;2022-07-24T07:12:52;7.15;;;6.10;;
3953;SDS011;1991;48.682;9.030;2022-07-24T07:15:18;6.47;;;5.72;;
3953;SDS011;1991;48.682;9.030;2022-07-24T07:17:43;8.80;;;6.28;;
3953;SDS011;1991;48.682;9.030;2022-07-24T07:20:10;6.30;;;5.72;;
3953;SDS011;1991;48.682;9.030;2022-07-24T07:22:36;6.65;;;5.95;;
3953;SDS011;1991;48.682;9.030;2022-07-24T07:25:03;6.43;;;5.82;;
3953;SDS011;1991;48.682;9.030;2022-07-24T07:27:29;6.82;;;6.00;;
3953;SDS011;1991;48.682;9.030;2022-07-24T07:29:54;6.88;;;5.50;;
3953;SDS011;1991;48.682;9.030;2022-07-24T07:32:20;7.43;;;5.93;;
3953;SDS011;1991;48.682;9.030;2022-07-24T07:34:45;6.18;;;5.57;;
3953;SDS011;1991;48.682;9.030;2022-07-24T07:37:11;6.55;;;5.90;;
3953;SDS011;1991;48.682;9.030;2022-07-24T07:39:36;6.40;;;5.75;;
3953;SDS011;1991;48.682;9.030;2022-07-24T07:42:02;6.93;;;6.20;;
3953;SDS011;1991;48.682;9.030;2022-07-24T07:44:28;8.20;;;5.97;;
3953;SDS011;1991;48.682;9.030;2022-07-24T07:46:53;6.45;;;5.82;;
3953;SDS011;1991;48.682;9.030;2022-07-24T07:49:19;7.45;;;5.82;;
3953;SDS011;1991;48.682;9.030;2022-07-24T07:51:45;6.80;;;6.20;;
3953;SDS011;1991;48.682;9.030;2022-07-24T07:54:12;6.30;;;5.70;;
3953;SDS011;1991;48.682;9.030;2022-07-24T07:56:39;6.95;;;6.35;;
3953;SDS011;1991;48.682;9.030;2022-07-24T07:59:05;5.85;;;5.25;;
3953;SDS011;1991;48.682;9.030;2022-07-24T08:01:31;7.10;;;6.13;;
3953;SDS011;1991;48.682;9.030;2022-07-24T08:03:57;7.63;;;6.35;;
3953;SDS011;1991;48.682;9.030;2022-07-24T08:06:22;6.47;;;5.88;;
3953;SDS011;1991;48.682;9.030;2022-07-24T08:08:48;7.55;;;5.70;;
3953;SDS011;1991;48.682;9.030;2022-07-24T08:11:13;6.10;;;5.50;;
3953;SDS011;1991;48.682;9.030;2022-07-24T08:13:39;5.85;;;5.32;;
3953;SDS011;1991;48.682;9.030;2022-07-24T08:16:05;6.00;;;5.50;;
3953;SDS011;1991;48.682;9.030;2022-07-24T08:18:31;6.00;;;5.40;;
3953;SDS011;1991;48.682;9.030;2022-07-24T08:20:56;6.20;;;5.45;;
3953;SDS011;1991;48.682;9.030;2022-07-24T08:23:22;11.63;;;6.35;;
3953;SDS011;1991;48.682;9.030;2022-07-24T08:25:47;5.82;;;5.22;;
3953;SDS011;1991;48.682;9.030;2022-07-24T08:28:13;6.05;;;5.55;;
3953;SDS011;1991;48.682;9.030;2022-07-24T08:30:39;8.23;;;5.60;;
3953;SDS011;1991;48.682;9.030;2022-07-24T08:33:04;6.07;;;5.57;;
3953;SDS011;1991;48.682;9.030;2022-07-24T08:35:30;6.03;;;5.28;;
3953;SDS011;1991;48.682;9.030;2022-07-24T08:37:56;9.07;;;5.57;;
3953;SDS011;1991;48.682;9.030;2022-07-24T08:40:22;6.55;;;5.22;;
3953;SDS011;1991;48.682;9.030;2022-07-24T08:42:48;6.43;;;5.20;;
3953;SDS011;1991;48.682;9.030;2022-07-24T08:45:13;6.00;;;5.38;;
3953;SDS011;1991;48.682;9.030;2022-07-24T08:47:40;6.18;;;5.57;;
3953;SDS011;1991;48.682;9.030;2022-07-24T08:50:06;5.72;;;5.20;;
3953;SDS011;1991;48.682;9.030;2022-07-24T08:52:33;5.30;;;4.75;;
3953;SDS011;1991;48.682;9.030;2022-07-24T08:55:00;5.70;;;5.20;;
3953;SDS011;1991;48.682;9.030;2022-07-24T08:57:26;5.93;;;5.15;;
3953;SDS011;1991;48.682;9.030;2022-07-24T08:59:52;7.28;;;5.22;;
3953;SDS011;1991;48.682;9.030;2022-07-24T09:02:18;5.10;;;4.70;;
3953;SDS011;1991;48.682;9.030;2022-07-24T09:04:44;5.85;;;5.28;;
3953;SDS011;1991;48.682;9.030;2022-07-24T09:07:15;5.53;;;5.10;;
3953;SDS011;1991;48.682;9.030;2022-07-24T09:10:02;6.07;;;5.47;;
3953;SDS011;1991;48.682;9.030;2022-07-24T09:12:31;6.03;;;5.43;;
3953;SDS011;1991;48.682;9.030;2022-07-24T09:15:15;5.95;;;5.43;;
3953;SDS011;1991;48.682;9.030;2022-07-24T09:20:19;5.45;;;4.95;;
3953;SDS011;1991;48.682;9.030;2022-07-24T09:22:46;5.47;;;4.97;;
3953;SDS011;1991;48.682;9.030;2022-07-24T09:25:15;5.28;;;4.78;;
3953;SDS011;1991;48.682;9.030;2022-07-24T09:27:47;6.43;;;4.95;;
3953;SDS011;1991;48.682;9.030;2022-07-24T09:30:25;5.72;;;5.22;;
3953;SDS011;1991;48.682;9.030;2022-07-24T09:33:01;6.38;;;5.78;;
3953;SDS011;1991;48.682;9.030;2022-07-24T09:35:50;6.72;;;5.80;;
3953;SDS011;1991;48.682;9.030;2022-07-24T09:38:17;7.13;;;5.53;;
3953;SDS011;1991;48.682;9.030;2022-07-24T09:40:45;6.85;;;5.50;;
3953;SDS011;1991;48.682;9.030;2022-07-24T09:43:15;5.72;;;5.22;;
3953;SDS011;1991;48.682;9.030;2022-07-24T09:46:03;6.10;;;5.50;;
3953;SDS011;1991;48.682;9.030;2022-07-24T09:51:13;5.90;;;5.40;;
3953;SDS011;1991;48.682;9.030;2022-07-24T09:53:41;6.15;;;5.65;;
3953;SDS011;1991;48.682;9.030;2022-07-24T09:56:09;6.20;;;5.70;;
3953;SDS011;1991;48.682;9.030;2022-07-24T09:58:55;6.32;;;5.72;;
3953;SDS011;1991;48.682;9.030;2022-07-24T10:01:25;6.53;;;5.30;;
3953;SDS011;1991;48.682;9.030;2022-07-24T10:03:53;5.88;;;5.28;;
3953;SDS011;1991;48.682;9.030;2022-07-24T10:06:23;7.35;;;5.57;;
3953;SDS011;1991;48.682;9.030;2022-07-24T10:08:53;7.88;;;5.55;;
3953;SDS011;1991;48.682;9.030;2022-07-24T10:11:20;7.13;;;5.65;;
3953;SDS011;1991;48.682;9.030;2022-07-24T10:13:46;7.35;;;5.40;;
3953;SDS011;1991;48.682;9.030;2022-07-24T10:18:46;6.00;;;5.35;;
3953;SDS011;1991;48.682;9.030;2022-07-24T10:21:22;6.10;;;5.50;;
3953;SDS011;1991;48.682;9.030;2022-07-24T10:26:45;7.50;;;5.82;;
3953;SDS011;1991;48.682;9.030;2022-07-24T10:29:23;6.07;;;5.57;;
3953;SDS011;1991;48.682;9.030;2022-07-24T10:31:50;5.63;;;5.18;;
3953;SDS011;1991;48.682;9.030;2022-07-24T10:36:54;6.00;;;5.50;;
3953;SDS011;1991;48.682;9.030;2022-07-24T10:39:28;5.47;;;5.03;;
3953;SDS011;1991;48.682;9.030;2022-07-24T10:42:04;7.53;;;5.25;;
3953;SDS011;1991;48.682;9.030;2022-07-24T10:44:31;6.38;;;5.82;;
3953;SDS011;1991;48.682;9.030;2022-07-24T10:47:04;6.22;;;5.70;;
3953;SDS011;1991;48.682;9.030;2022-07-24T10:49:35;6.45;;;5.65;;
3953;SDS011;1991;48.682;9.030;2022-07-24T10:52:04;6.18;;;5.68;;
3953;SDS011;1991;48.682;9.030;2022-07-24T10:54:30;7.07;;;6.07;;
3953;SDS011;1991;48.682;9.030;2022-07-24T10:56:55;7.38;;;6.68;;
3953;SDS011;1991;48.682;9.030;2022-07-24T10:59:54;6.70;;;6.10;;
3953;SDS011;1991;48.682;9.030;2022-07-24T11:02:34;5.57;;;5.18;;
3953;SDS011;1991;48.682;9.030;2022-07-24T11:10:53;6.55;;;6.03;;
3953;SDS011;1991;48.682;9.030;2022-07-24T11:18:35;9.02;;;6.28;;
3953;SDS011;1991;48.682;9.030;2022-07-24T11:21:05;6.30;;;5.78;;
3953;SDS011;1991;48.682;9.030;2022-07-24T11:23:31;9.73;;;6.15;;
3953;SDS011;1991;48.682;9.030;2022-07-24T11:31:45;32.53;;;28.95;;
3953;SDS011;1991;48.682;9.030;2022-07-24T11:34:12;7.40;;;6.78;;
3953;SDS011;1991;48.682;9.030;2022-07-24T11:36:44;6.40;;;5.80;;
3953;SDS011;1991;48.682;9.030;2022-07-24T11:39:15;6.90;;;6.22;;
3953;SDS011;1991;48.682;9.030;2022-07-24T11:44:12;8.68;;;7.88;;
3953;SDS011;1991;48.682;9.030;2022-07-24T11:46:38;9.43;;;8.38;;
3953;SDS011;1991;48.682;9.030;2022-07-24T11:49:05;7.78;;;5.95;;
3953;SDS011;1991;48.682;9.030;2022-07-24T11:51:44;7.22;;;6.40;;
3953;SDS011;1991;48.682;9.030;2022-07-24T11:54:12;6.25;;;5.70;;
3953;SDS011;1991;48.682;9.030;2022-07-24T11:56:40;9.60;;;8.70;;
3953;SDS011;1991;48.682;9.030;2022-07-24T11:59:20;7.43;;;5.85;;
3953;SDS011;1991;48.682;9.030;2022-07-24T12:01:47;6.03;;;5.43;;
3953;SDS011;1991;48.682;9.030;2022-07-24T12:04:12;6.28;;;5.35;;
3953;SDS011;1991;48.682;9.030;2022-07-24T12:06:46;6.45;;;5.85;;
3953;SDS011;1991;48.682;9.030;2022-07-24T12:09:12;6.40;;;5.80;;
3953;SDS011;1991;48.682;9.030;2022-07-24T12:11:37;7.03;;;6.40;;
3953;SDS011;1991;48.682;9.030;2022-07-24T12:14:19;8.32;;;5.97;;
3953;SDS011;1991;48.682;9.030;2022-07-24T12:16:52;6.20;;;5.60;;
3953;SDS011;1991;48.682;9.030;2022-07-24T12:19:23;6.78;;;6.18;;
3953;SDS011;1991;48.682;9.030;2022-07-24T12:21:52;5.90;;;5.40;;
3953;SDS011;1991;48.682;9.030;2022-07-24T12:24:18;6.30;;;5.68;;
3953;SDS011;1991;48.682;9.030;2022-07-24T12:26:55;6.10;;;5.55;;
3953;SDS011;1991;48.682;9.030;2022-07-24T12:29:22;6.38;;;5.70;;
3953;SDS011;1991;48.682;9.030;2022-07-24T12:31:52;5.70;;;5.20;;
3953;SDS011;1991;48.682;9.030;2022-07-24T12:34:41;5.88;;;5.13;;
3953;SDS011;1991;48.682;9.030;2022-07-24T12:37:17;5.90;;;5.30;;
3953;SDS011;1991;48.682;9.030;2022-07-24T12:39:51;6.00;;;5.22;;
3953;SDS011;1991;48.682;9.030;2022-07-24T12:42:18;6.03;;;5.43;;
3953;SDS011;1991;48.682;9.030;2022-07-24T12:44:53;8.65;;;5.57;;
3953;SDS011;1991;48.682;9.030;2022-07-24T12:47:19;6.05;;;5.43;;
3953;SDS011;1991;48.682;9.030;2022-07-24T12:49:45;5.95;;;5.45;;
3953;SDS011;1991;48.682;9.030;2022-07-24T12:52:22;5.80;;;5.30;;
3953;SDS011;1991;48.682;9.030;2022-07-24T12:54:49;5.82;;;5.30;;
3953;SDS011;1991;48.682;9.030;2022-07-24T12:57:15;5.38;;;4.88;;
3953;SDS011;1991;48.682;9.030;2022-07-24T12:59:45;5.85;;;5.35;;
3953;SDS011;1991;48.682;9.030;2022-07-24T13:02:15;6.32;;;5.18;;
3953;SDS011;1991;48.682;9.030;2022-07-24T13:04:48;5.50;;;5.00;;
3953;SDS011;1991;48.682;9.030;2022-07-24T13:07:16;6.13;;;5.63;;
3953;SDS011;1991;48.682;9.030;2022-07-24T13:09:43;6.82;;;4.95;;
3953;SDS011;1991;48.682;9.030;2022-07-24T13:12:10;5.72;;;5.32;;
3953;SDS011;1991;48.682;9.030;2022-07-24T13:14:36;5.00;;;4.50;;
3953;SDS011;1991;48.682;9.030;2022-07-24T13:17:04;6.20;;;5.70;;
3953;SDS011;1991;48.682;9.030;2022-07-24T13:19:33;6.55;;;5.60;;
3953;SDS011;1991;48.682;9.030;2022-07-24T13:21:59;5.20;;;4.80;;
3953;SDS011;1991;48.682;9.030;2022-07-24T13:24:24;5.53;;;5.13;;
3953;SDS011;1991;48.682;9.030;2022-07-24T13:26:50;6.72;;;5.45;;
3953;SDS011;1991;48.682;9.030;2022-07-24T13:29:16;5.40;;;4.90;;
3953;SDS011;1991;48.682;9.030;2022-07-24T13:31:42;4.90;;;4.50;;
3953;SDS011;1991;48.682;9.030;2022-07-24T13:34:08;6.60;;;4.75;;
3953;SDS011;1991;48.682;9.030;2022-07-24T13:36:35;5.38;;;4.88;;
3953;SDS011;1991;48.682;9.030;2022-07-24T13:39:04;5.82;;;5.22;;
3953;SDS011;1991;48.682;9.030;2022-07-24T13:41:30;5.70;;;5.15;;
3953;SDS011;1991;48.682;9.030;2022-07-24T13:43:56;5.47;;;4.90;;
3953;SDS011;1991;48.682;9.030;2022-07-24T13:46:22;6.78;;;5.22;;
3953;SDS011;1991;48.682;9.030;2022-07-24T13:48:48;5.65;;;5.07;;
3953;SDS011;1991;48.682;9.030;2022-07-24T13:51:15;5.18;;;4.78;;
3953;SDS011;1991;48.682;9.030;2022-07-24T13:53:40;5.32;;;4.93;;
3953;SDS011;1991;48.682;9.030;2022-07-24T13:56:06;5.65;;;4.85;;
3953;SDS011;1991;48.682;9.030;2022-07-24T13:58:33;6.13;;;5.07;;
3953;SDS011;1991;48.682;9.030;2022-07-24T14:01:01;6.65;;;5.07;;
3953;SDS011;1991;48.682;9.030;2022-07-24T14:03:27;5.95;;;5.10;;
3953;SDS011;1991;48.682;9.030;2022-07-24T14:05:53;5.82;;;5.32;;
3953;SDS011;1991;48.682;9.030;2022-07-24T14:08:19;5.70;;;5.20;;
3953;SDS011;1991;48.682;9.030;2022-07-24T14:10:44;5.60;;;5.10;;
3953;SDS011;1991;48.682;9.030;2022-07-24T14:13:10;5.22;;;4.75;;
3953;SDS011;1991;48.682;9.030;2022-07-24T14:15:36;5.63;;;5.13;;
3953;SDS011;1991;48.682;9.030;2022-07-24T14:18:02;5.82;;;4.97;;
3953;SDS011;1991;48.682;9.030;2022-07-24T14:20:27;5.32;;;4.93;;
3953;SDS011;1991;48.682;9.030;2022-07-24T14:22:53;8.05;;;5.15;;
3953;SDS011;1991;48.682;9.030;2022-07-24T14:25:19;5.53;;;5.05;;
3953;SDS011;1991;48.682;9.030;2022-07-24T14:27:44;5.43;;;4.57;;
3953;SDS011;1991;48.682;9.030;2022-07-24T14:30:11;5.25;;;4.75;;
3953;SDS011;1991;48.682;9.030;2022-07-24T14:32:36;6.30;;;5.70;;
3953;SDS011;1991;48.682;9.030;2022-07-24T14:35:02;7.03;;;5.60;;
3953;SDS011;1991;48.682;9.030;2022-07-24T14:37:32;5.55;;;5.05;;
3953;SDS011;1991;48.682;9.030;2022-07-24T14:39:58;7.38;;;5.00;;
3953;SDS011;1991;48.682;9.030;2022-07-24T14:42:24;5.50;;;5.00;;
3953;SDS011;1991;48.682;9.030;2022-07-24T14:44:50;5.88;;;5.35;;
3953;SDS011;1991;48.682;9.030;2022-07-24T14:47:16;5.90;;;5.32;;
3953;SDS011;1991;48.682;9.030;2022-07-24T14:49:42;5.38;;;4.97;;
3953;SDS011;1991;48.682;9.030;2022-07-24T14:52:07;5.68;;;5.18;;
3953;SDS011;1991;48.682;9.030;2022-07-24T14:54:33;5.43;;;4.93;;
3953;SDS011;1991;48.682;9.030;2022-07-24T14:56:58;5.63;;;5.13;;
3953;SDS011;1991;48.682;9.030;2022-07-24T14:59:25;5.50;;;5.00;;
3953;SDS011;1991;48.682;9.030;2022-07-24T15:01:51;5.85;;;5.28;;
3953;SDS011;1991;48.682;9.030;2022-07-24T15:04:17;5.72;;;5.22;;
3953;SDS011;1991;48.682;9.030;2022-07-24T15:06:43;5.57;;;5.18;;
3953;SDS011;1991;48.682;9.030;2022-07-24T15:09:08;6.03;;;5.43;;
3953;SDS011;1991;48.682;9.030;2022-07-24T15:11:34;7.65;;;5.47;;
3953;SDS011;1991;48.682;9.030;2022-07-24T15:13:59;5.68;;;5.28;;
3953;SDS011;1991;48.682;9.030;2022-07-24T15:16:25;7.20;;;4.95;;
3953;SDS011;1991;48.682;9.030;2022-07-24T15:18:51;5.53;;;5.03;;
3953;SDS011;1991;48.682;9.030;2022-07-24T15:21:16;5.60;;;5.10;;
3953;SDS011;1991;48.682;9.030;2022-07-24T15:23:42;6.22;;;5.22;;
3953;SDS011;1991;48.682;9.030;2022-07-24T15:26:07;5.38;;;4.88;;
3953;SDS011;1991;48.682;9.030;2022-07-24T15:28:33;5.85;;;5.35;;
3953;SDS011;1991;48.682;9.030;2022-07-24T15:30:58;6.15;;;5.45;;
3953;SDS011;1991;48.682;9.030;2022-07-24T15:33:24;6.10;;;5.10;;
3953;SDS011;1991;48.682;9.030;2022-07-24T15:35:50;7.97;;;5.10;;
3953;SDS011;1991;48.682;9.030;2022-07-24T15:38:16;5.60;;;5.10;;
3953;SDS011;1991;48.682;9.030;2022-07-24T15:40:44;5.60;;;5.10;;
3953;SDS011;1991;48.682;9.030;2022-07-24T15:43:10;5.70;;;5.15;;
3953;SDS011;1991;48.682;9.030;2022-07-24T15:45:36;6.53;;;5.28;;